createdAt,value
2019-01-22T00:01:53.821Z,92.41
2019-01-22T00:04:22.450Z,92.98
2019-01-22T00:06:51.076Z,93.36
2019-01-22T00:09:19.838Z,93.76
2019-01-22T00:11:48.445Z,93.96
2019-01-22T00:14:18.813Z,94.06
2019-01-22T00:16:47.435Z,94.32
2019-01-22T00:19:35.282Z,94.49
2019-01-22T00:22:03.913Z,94.64
2019-01-22T00:24:34.318Z,94.94
2019-01-22T00:27:02.958Z,94.82
2019-01-22T00:29:31.701Z,94.53
2019-01-22T00:32:00.346Z,94.44
2019-01-22T00:34:28.987Z,94.61
2019-01-22T00:36:57.699Z,94.49
2019-01-22T00:39:26.347Z,94.43
2019-01-22T00:41:55.077Z,94.21
2019-01-22T00:44:23.728Z,93.96
2019-01-22T00:46:52.427Z,94.07
2019-01-22T00:49:21.090Z,94.22
2019-01-22T00:51:51.530Z,94.17
2019-01-22T00:54:20.205Z,94.21
2019-01-22T00:56:48.805Z,94.08
2019-01-22T00:59:17.443Z,94.12
2019-01-22T01:01:46.139Z,94.24
2019-01-22T01:04:14.872Z,94.21
2019-01-22T01:06:43.507Z,94.29
2019-01-22T01:09:12.280Z,93.93
2019-01-22T01:11:40.941Z,93.96
2019-01-22T01:14:09.662Z,94.09
2019-01-22T01:16:38.347Z,94.03
2019-01-22T01:19:07.144Z,93.74
2019-01-22T01:21:35.833Z,93.66
2019-01-22T01:24:04.648Z,93.71
2019-01-22T01:26:33.365Z,93.79
2019-01-22T01:29:02.164Z,94.11
2019-01-22T01:31:30.868Z,94.16
2019-01-22T01:36:45.971Z,94.11
2019-01-22T01:39:14.602Z,94.04
2019-01-22T01:41:43.224Z,94.14
2019-01-22T01:44:11.927Z,94.30
2019-01-22T01:46:40.702Z,94.16
2019-01-22T01:49:09.429Z,94.23
2019-01-22T01:51:38.054Z,94.32
2019-01-22T01:54:06.732Z,94.38
2019-01-22T01:56:35.390Z,94.45
2019-01-22T02:02:12.540Z,94.78
2019-01-22T02:04:41.170Z,94.46
2019-01-22T02:07:11.556Z,94.57
2019-01-22T02:09:40.142Z,94.35
2019-01-22T02:12:08.766Z,94.36
2019-01-22T02:14:42.564Z,94.35
2019-01-22T02:17:16.502Z,94.31
2019-01-22T02:20:11.698Z,94.04
2019-01-22T02:23:18.824Z,93.88
2019-01-22T02:26:00.079Z,93.35
2019-01-22T02:29:07.202Z,93.51
2019-01-22T02:32:07.577Z,93.39
2019-01-22T02:35:14.663Z,93.38
2019-01-22T02:38:21.799Z,93.43
2019-01-22T02:41:28.948Z,93.34
2019-01-22T02:44:36.043Z,93.19
2019-01-22T02:47:27.734Z,93.12
2019-01-22T02:50:20.408Z,93.05
2019-01-22T02:53:13.368Z,93.02
2019-01-22T02:56:20.452Z,93.13
2019-01-22T02:59:27.587Z,92.86
2019-01-22T03:02:34.741Z,92.70
2019-01-22T03:05:35.555Z,92.79
2019-01-22T03:08:28.987Z,93.24
2019-01-22T03:11:14.113Z,93.02
2019-01-22T03:14:08.501Z,92.87
2019-01-22T03:17:15.632Z,92.54
2019-01-22T03:20:22.761Z,92.29
2019-01-22T03:23:29.877Z,92.22
2019-01-22T03:26:37.004Z,92.32
2019-01-22T03:29:44.128Z,92.37
2019-01-22T03:32:51.251Z,92.21
2019-01-22T03:35:43.872Z,91.93
2019-01-22T03:38:20.500Z,91.99
2019-01-22T03:41:27.615Z,92.61
2019-01-22T03:44:34.727Z,92.75
2019-01-22T03:47:42.101Z,92.94
2019-01-22T03:50:43.469Z,93.87
2019-01-22T03:53:53.779Z,93.83
2019-01-22T03:56:59.446Z,93.45
2019-01-22T03:59:28.427Z,93.19
2019-01-22T04:01:57.074Z,93.21
2019-01-22T04:04:25.717Z,93.06
2019-01-22T04:06:59.745Z,93.14
2019-01-22T04:09:34.764Z,92.96
2019-01-22T04:12:03.370Z,93.06
2019-01-22T04:14:32.002Z,92.71
2019-01-22T04:17:00.706Z,92.44
2019-01-22T04:19:29.356Z,92.77
2019-01-22T04:21:57.995Z,92.64
2019-01-22T04:25:05.205Z,92.97
2019-01-22T04:27:55.877Z,92.86
2019-01-22T04:31:03.006Z,92.98
2019-01-22T04:34:10.499Z,92.94
2019-01-22T04:37:17.613Z,92.68
2019-01-22T04:40:13.410Z,93.07
2019-01-22T04:43:20.454Z,93.60
2019-01-22T04:45:54.175Z,93.74
2019-01-22T04:48:49.727Z,93.90
2019-01-22T04:51:40.459Z,93.67
2019-01-22T04:54:47.585Z,93.98
2019-01-22T04:57:38.059Z,94.35
2019-01-22T05:00:45.179Z,94.42
2019-01-22T05:03:52.280Z,94.25
2019-01-22T05:06:55.445Z,94.10
2019-01-22T05:10:00.371Z,94.26
2019-01-22T05:12:56.818Z,94.54
2019-01-22T05:15:54.768Z,95.36
2019-01-22T05:19:01.895Z,95.52
2019-01-22T05:22:09.018Z,95.55
2019-01-22T05:25:16.130Z,95.80
2019-01-22T05:28:23.233Z,95.86
2019-01-22T05:31:03.420Z,95.64
2019-01-22T05:34:12.241Z,95.78
2019-01-22T05:36:51.257Z,96.34
2019-01-22T05:39:46.433Z,96.83
2019-01-22T05:42:53.562Z,96.97
2019-01-22T05:45:41.784Z,97.23
2019-01-22T05:48:42.739Z,97.16
2019-01-22T05:51:33.434Z,97.27
2019-01-22T05:54:42.293Z,97.32
2019-01-22T05:57:49.411Z,97.20
2019-01-22T06:00:56.568Z,97.22
2019-01-22T06:03:48.963Z,97.33
2019-01-22T06:06:43.144Z,97.61
2019-01-22T06:09:30.491Z,98.04
2019-01-22T06:12:37.603Z,99.14
2019-01-22T06:15:44.702Z,100.00
2019-01-22T06:18:51.817Z,100.00
2019-01-22T06:21:58.980Z,100.00
2019-01-22T06:25:06.130Z,100.00
2019-01-22T06:27:39.294Z,100.00
2019-01-22T06:30:21.393Z,100.00
2019-01-22T06:33:28.581Z,100.00
2019-01-22T06:36:35.690Z,100.00
2019-01-22T06:39:42.790Z,100.00
2019-01-22T06:42:49.912Z,100.00
2019-01-22T06:45:57.038Z,100.00
2019-01-22T06:49:04.167Z,100.00
2019-01-22T06:52:11.291Z,100.00
2019-01-22T06:55:18.416Z,100.00
2019-01-22T06:58:25.540Z,100.00
2019-01-22T07:01:32.651Z,100.00
2019-01-22T07:04:39.769Z,100.00
2019-01-22T07:07:46.883Z,100.00
2019-01-22T07:10:38.098Z,100.00
2019-01-22T07:13:45.236Z,100.00
2019-01-22T07:16:52.370Z,100.00
2019-01-22T07:19:45.775Z,100.00
2019-01-22T07:22:52.899Z,100.00
2019-01-22T07:26:00.026Z,100.00
2019-01-22T07:28:54.351Z,100.00
2019-01-22T07:31:37.423Z,100.00
2019-01-22T07:34:30.110Z,100.00
2019-01-22T07:37:37.237Z,100.00
2019-01-22T07:40:28.757Z,100.00
2019-01-22T07:43:28.883Z,100.00
2019-01-22T07:46:25.050Z,100.00
2019-01-22T07:49:18.389Z,100.00
2019-01-22T07:52:10.975Z,100.00
2019-01-22T07:55:03.642Z,100.00
2019-01-22T07:58:10.786Z,100.00
2019-01-22T08:01:11.534Z,100.00
2019-01-22T08:04:37.650Z,100.00
2019-01-22T08:07:49.985Z,100.00
2019-01-22T08:10:57.097Z,100.00
2019-01-22T08:13:35.258Z,100.00
2019-01-22T08:16:42.384Z,100.00
2019-01-22T08:19:49.485Z,100.00
2019-01-22T08:22:56.670Z,100.00
2019-01-22T08:26:03.818Z,100.00
2019-01-22T08:29:10.936Z,100.00
2019-01-22T08:32:18.078Z,100.00
2019-01-22T08:35:25.214Z,100.00
2019-01-22T08:38:32.417Z,100.00
2019-01-22T08:41:25.350Z,100.00
2019-01-22T08:44:07.166Z,100.00
2019-01-22T08:47:14.273Z,100.00
2019-01-22T08:50:09.457Z,100.00
2019-01-22T08:53:16.562Z,100.00
2019-01-22T08:56:13.116Z,100.00
2019-01-22T08:59:20.252Z,100.00
2019-01-22T09:02:13.376Z,100.00
2019-01-22T09:05:20.509Z,100.00
2019-01-22T09:08:27.673Z,100.00
2019-01-22T09:11:34.779Z,100.00
2019-01-22T09:14:17.058Z,100.00
2019-01-22T09:17:10.547Z,100.00
2019-01-22T09:20:17.658Z,100.00
2019-01-22T09:23:24.784Z,99.40
2019-01-22T09:26:16.753Z,99.59
2019-01-22T09:29:23.887Z,99.70
2019-01-22T09:32:15.950Z,99.58
2019-01-22T09:35:23.069Z,99.74
2019-01-22T09:37:59.765Z,99.72
2019-01-22T09:40:28.465Z,98.95
2019-01-22T09:42:57.185Z,98.60
2019-01-22T09:45:26.021Z,98.42
2019-01-22T09:47:54.658Z,97.98
2019-01-22T09:50:23.378Z,98.61
2019-01-22T09:52:52.016Z,98.63
2019-01-22T09:55:22.589Z,98.77
2019-01-22T09:57:51.193Z,98.38
2019-01-22T10:00:20.851Z,98.43
2019-01-22T10:02:49.544Z,98.25
2019-01-22T10:05:18.263Z,98.06
2019-01-22T10:07:46.879Z,97.83
2019-01-22T10:10:56.319Z,97.60
2019-01-22T10:13:25.025Z,96.53
2019-01-22T10:18:48.794Z,95.59
2019-01-22T10:21:17.526Z,96.38
2019-01-22T10:23:46.931Z,96.82
2019-01-22T10:26:16.588Z,96.80
2019-01-22T10:28:45.231Z,96.63
2019-01-22T10:31:13.962Z,96.32
2019-01-22T10:33:42.802Z,95.52
2019-01-22T10:36:11.586Z,94.93
2019-01-22T10:38:40.207Z,94.46
2019-01-22T10:41:08.839Z,94.11
2019-01-22T10:43:37.538Z,94.82
2019-01-22T10:46:06.366Z,94.65
2019-01-22T10:48:34.999Z,94.44
2019-01-22T10:51:03.866Z,93.71
2019-01-22T10:53:32.484Z,93.98
2019-01-22T10:56:01.136Z,93.42
2019-01-22T10:58:29.820Z,93.06
2019-01-22T11:00:58.629Z,92.90
2019-01-22T11:03:27.267Z,92.36
2019-01-22T11:05:55.961Z,91.87
2019-01-22T11:08:24.590Z,91.43
2019-01-22T11:10:53.214Z,90.55
2019-01-22T11:13:21.826Z,90.33
2019-01-22T11:15:50.630Z,90.67
2019-01-22T11:18:19.319Z,91.10
2019-01-22T11:20:47.962Z,90.89
2019-01-22T11:23:16.620Z,91.12
2019-01-22T11:25:45.322Z,90.76
2019-01-22T11:28:13.979Z,90.69
2019-01-22T11:30:42.593Z,90.11
2019-01-22T11:33:11.266Z,90.41
2019-01-22T11:35:39.880Z,90.29
2019-01-22T11:38:12.688Z,90.49
2019-01-22T11:40:43.078Z,89.96
2019-01-22T11:43:12.603Z,89.77
2019-01-22T11:45:41.291Z,89.21
2019-01-22T11:48:11.183Z,89.05
2019-01-22T11:50:39.860Z,88.88
2019-01-22T11:53:11.200Z,89.22
2019-01-22T11:55:40.006Z,90.25
2019-01-22T11:58:08.828Z,90.39
2019-01-22T12:03:24.127Z,88.35
2019-01-22T12:05:53.337Z,89.79
2019-01-22T12:08:23.303Z,89.66
2019-01-22T12:10:52.114Z,89.05
2019-01-22T12:13:20.735Z,88.85
2019-01-22T12:15:49.415Z,89.18
2019-01-22T12:18:18.160Z,89.14
2019-01-22T12:20:48.331Z,88.90
2019-01-22T12:23:17.026Z,89.08
2019-01-22T12:25:45.710Z,88.71
2019-01-22T12:28:14.829Z,88.56
2019-01-22T12:30:43.611Z,88.81
2019-01-22T12:33:12.534Z,88.97
2019-01-22T12:35:41.314Z,88.40
2019-01-22T12:38:10.003Z,88.89
2019-01-22T12:40:38.697Z,88.88
2019-01-22T12:43:07.645Z,88.92
2019-01-22T12:45:38.186Z,88.26
2019-01-22T12:48:07.884Z,87.39
2019-01-22T12:53:45.867Z,87.28
2019-01-22T12:56:15.347Z,87.59
2019-01-22T12:58:44.077Z,87.61
2019-01-22T13:01:12.709Z,87.24
2019-01-22T13:03:41.383Z,86.88
2019-01-22T13:06:10.090Z,87.44
2019-01-22T13:08:38.744Z,87.48
2019-01-22T13:11:07.437Z,87.10
2019-01-22T13:13:36.079Z,86.98
2019-01-22T13:16:04.913Z,86.63
2019-01-22T13:18:33.559Z,86.51
2019-01-22T13:21:02.258Z,86.96
2019-01-22T13:23:31.002Z,86.96
2019-01-22T13:25:59.699Z,86.68
2019-01-22T13:28:28.397Z,87.14
2019-01-22T13:30:57.257Z,87.05
2019-01-22T13:36:21.194Z,87.76
2019-01-22T13:38:49.871Z,87.21
2019-01-22T13:41:18.480Z,87.27
2019-01-22T13:43:47.235Z,87.80
2019-01-22T13:46:15.837Z,87.90
2019-01-22T13:48:44.506Z,87.91
2019-01-22T13:51:13.174Z,88.20
2019-01-22T13:53:41.938Z,87.44
2019-01-22T13:56:10.573Z,87.14
2019-01-22T13:58:39.230Z,87.19
2019-01-22T14:01:07.879Z,86.91
2019-01-22T14:03:36.537Z,86.28
2019-01-22T14:06:05.252Z,86.78
2019-01-22T14:08:33.937Z,86.90
2019-01-22T14:11:02.572Z,87.04
2019-01-22T14:13:31.215Z,86.87
2019-01-22T14:15:59.957Z,87.09
2019-01-22T14:18:28.687Z,87.44
2019-01-22T14:20:57.319Z,87.02
2019-01-22T14:23:25.979Z,87.06
2019-01-22T14:25:54.657Z,88.06
2019-01-22T14:28:23.302Z,88.54
2019-01-22T14:30:51.970Z,89.20
2019-01-22T14:33:20.769Z,88.34
2019-01-22T14:35:49.504Z,87.48
2019-01-22T14:38:18.249Z,86.98
2019-01-22T14:40:47.067Z,86.85
2019-01-22T14:43:15.709Z,87.00
2019-01-22T14:45:44.336Z,87.05
2019-01-22T14:48:12.957Z,87.38
2019-01-22T14:50:41.712Z,87.53
2019-01-22T14:53:10.400Z,87.23
2019-01-22T14:55:39.048Z,87.28
2019-01-22T14:58:07.827Z,86.74
2019-01-22T15:00:36.574Z,87.12
2019-01-22T15:03:26.012Z,87.94
2019-01-22T15:05:54.683Z,88.25
2019-01-22T15:08:23.306Z,87.72
2019-01-22T15:10:51.970Z,86.96
2019-01-22T15:13:20.650Z,87.16
2019-01-22T15:15:49.326Z,87.46
2019-01-22T15:18:18.011Z,87.38
2019-01-22T15:20:46.676Z,87.17
2019-01-22T15:23:15.330Z,87.32
2019-01-22T15:25:44.029Z,86.83
2019-01-22T15:28:12.780Z,86.58
2019-01-22T15:30:41.425Z,86.61
2019-01-22T15:33:10.140Z,86.90
2019-01-22T15:35:38.855Z,86.48
2019-01-22T15:38:07.476Z,85.63
2019-01-22T15:40:36.214Z,86.13
2019-01-22T15:43:04.913Z,86.06
2019-01-22T15:45:33.613Z,86.38
2019-01-22T15:48:05.048Z,87.29
2019-01-22T15:50:33.915Z,87.51
2019-01-22T15:53:02.717Z,87.78
2019-01-22T15:56:12.155Z,88.20
2019-01-22T15:58:40.809Z,87.48
2019-01-22T16:01:09.520Z,87.06
2019-01-22T16:03:38.149Z,86.32
2019-01-22T16:06:06.876Z,86.99
2019-01-22T16:08:35.500Z,86.60
2019-01-22T16:11:04.386Z,86.31
2019-01-22T16:13:33.022Z,86.49
2019-01-22T16:16:01.738Z,86.84
2019-01-22T16:18:30.364Z,87.78
2019-01-22T16:20:59.034Z,87.12
2019-01-22T16:23:27.656Z,86.75
2019-01-22T16:25:56.350Z,86.63
2019-01-22T16:28:24.994Z,86.70
2019-01-22T16:30:53.708Z,86.95
2019-01-22T16:33:22.482Z,87.29
2019-01-22T16:35:51.146Z,87.01
2019-01-22T16:38:19.760Z,86.85
2019-01-22T16:40:48.538Z,86.29
2019-01-22T16:43:17.144Z,85.55
2019-01-22T16:45:45.849Z,85.70
2019-01-22T16:48:14.498Z,85.71
2019-01-22T16:50:43.509Z,85.92
2019-01-22T16:53:18.317Z,85.90
2019-01-22T16:55:47.295Z,85.90
2019-01-22T16:58:16.068Z,86.28
2019-01-22T17:03:59.190Z,86.13
2019-01-22T17:06:27.899Z,86.01
2019-01-22T17:08:59.432Z,85.99
2019-01-22T17:11:28.462Z,85.71
2019-01-22T17:13:57.703Z,85.06
2019-01-22T17:16:27.068Z,84.38
2019-01-22T17:18:55.994Z,83.55
2019-01-22T17:24:17.560Z,84.18
2019-01-22T17:27:07.353Z,84.08
2019-01-22T17:29:38.105Z,84.25
2019-01-22T17:37:51.063Z,83.54
2019-01-22T17:40:19.855Z,83.49
2019-01-22T17:42:48.828Z,83.45
2019-01-22T17:50:41.330Z,83.10
2019-01-22T17:53:10.983Z,82.90
2019-01-22T17:55:39.825Z,83.23
2019-01-22T17:58:08.908Z,82.90
2019-01-22T18:03:40.535Z,83.07
2019-01-22T18:06:09.566Z,82.77
2019-01-22T18:08:39.026Z,81.82
2019-01-22T18:11:08.003Z,81.49
2019-01-22T18:13:37.159Z,81.85
2019-01-22T18:16:06.518Z,81.76
2019-01-22T18:18:35.342Z,81.97
2019-01-22T18:21:04.153Z,82.61
2019-01-22T18:23:33.047Z,83.50
2019-01-22T18:26:01.846Z,82.94
2019-01-22T18:28:32.467Z,82.72
2019-01-22T18:31:01.677Z,82.35
2019-01-22T18:33:30.600Z,81.41
2019-01-22T18:36:01.883Z,81.34
2019-01-22T18:38:30.759Z,81.28
2019-01-22T18:40:59.774Z,82.18
2019-01-22T18:43:28.520Z,81.77
2019-01-22T18:45:57.406Z,81.74
2019-01-22T18:48:29.444Z,81.48
2019-01-22T18:50:59.343Z,82.92
2019-01-22T18:53:28.163Z,81.90
2019-01-22T18:56:00.124Z,81.33
2019-01-22T18:58:28.990Z,80.81
2019-01-22T19:00:57.796Z,81.18
2019-01-22T19:03:26.611Z,80.60
2019-01-22T19:05:55.571Z,81.27
2019-01-22T19:08:24.565Z,81.52
2019-01-22T19:10:53.386Z,81.34
2019-01-22T19:13:22.537Z,82.14
2019-01-22T19:15:51.409Z,81.62
2019-01-22T19:18:20.659Z,81.13
2019-01-22T19:20:49.460Z,80.69
2019-01-22T19:23:18.461Z,81.36
2019-01-22T19:25:47.304Z,81.75
2019-01-22T19:28:16.021Z,81.23
2019-01-22T19:30:44.976Z,81.33
2019-01-22T19:33:13.887Z,80.51
2019-01-22T19:35:42.777Z,79.92
2019-01-22T19:38:11.561Z,79.10
2019-01-22T19:40:40.411Z,79.86
2019-01-22T19:43:09.423Z,80.34
2019-01-22T19:45:38.999Z,81.13
2019-01-22T19:48:08.019Z,80.68
2019-01-22T19:50:36.959Z,79.68
2019-01-22T19:56:13.184Z,80.08
2019-01-22T20:01:39.820Z,79.97
2019-01-22T20:04:08.707Z,79.62
2019-01-22T20:07:03.599Z,80.11
2019-01-22T20:09:32.969Z,79.82
2019-01-22T20:12:01.838Z,79.64
2019-01-22T20:17:30.333Z,79.85
2019-01-22T20:19:59.358Z,79.32
2019-01-22T20:23:07.957Z,78.47
2019-01-22T20:25:37.571Z,78.70
2019-01-22T20:28:06.770Z,78.89
2019-01-22T20:30:39.919Z,79.41
2019-01-22T20:33:09.169Z,79.46
2019-01-22T20:41:36.051Z,79.72
2019-01-22T20:44:05.036Z,79.22
2019-01-22T20:46:33.931Z,78.95
2019-01-22T20:49:02.800Z,78.74
2019-01-22T20:51:52.125Z,79.57
2019-01-22T20:54:23.566Z,79.54
2019-01-22T20:56:52.497Z,79.88
2019-01-22T20:59:21.297Z,80.83
2019-01-22T21:01:50.156Z,79.98
2019-01-22T21:04:19.403Z,79.61
2019-01-22T21:06:48.622Z,79.22
2019-01-22T21:09:38.371Z,79.28
2019-01-22T21:12:45.778Z,79.56
2019-01-22T21:15:14.771Z,79.33
2019-01-22T21:17:44.013Z,79.55
2019-01-22T21:20:16.260Z,80.03
2019-01-22T21:23:04.577Z,80.00
2019-01-22T21:25:33.504Z,79.80
2019-01-22T21:33:12.652Z,79.10
2019-01-22T21:35:41.668Z,79.72
2019-01-22T21:38:10.704Z,80.12
2019-01-22T21:40:39.917Z,80.34
2019-01-22T21:45:56.736Z,80.58
2019-01-22T21:48:25.696Z,80.54
2019-01-22T21:50:54.553Z,79.95
2019-01-22T21:53:23.398Z,81.12
2019-01-22T21:56:11.462Z,80.98
2019-01-22T21:58:40.337Z,80.74
2019-01-22T22:01:09.446Z,80.50
2019-01-22T22:03:38.382Z,80.04
2019-01-22T22:06:07.369Z,80.28
2019-01-22T22:08:36.251Z,80.75
2019-01-22T22:14:19.431Z,81.46
2019-01-22T22:19:36.316Z,81.14
2019-01-22T22:22:05.160Z,80.54
2019-01-22T22:24:35.358Z,80.50
2019-01-22T22:28:39.378Z,79.66
2019-01-22T22:31:08.965Z,79.30
2019-01-22T22:33:37.718Z,79.00
2019-01-22T22:36:06.866Z,79.41
2019-01-22T22:38:35.737Z,80.24
2019-01-22T22:41:04.601Z,80.57
2019-01-22T22:43:33.279Z,80.65
2019-01-22T22:46:01.976Z,80.13
2019-01-22T22:48:31.300Z,80.52
2019-01-22T22:54:13.419Z,79.91
2019-01-22T22:56:42.213Z,79.52
2019-01-22T22:59:11.078Z,79.74
2019-01-22T23:01:39.959Z,80.01
2019-01-22T23:04:08.840Z,80.12
2019-01-22T23:06:37.824Z,80.08
2019-01-22T23:09:25.903Z,80.48
2019-01-22T23:11:55.083Z,80.58
2019-01-22T23:16:59.661Z,80.80
2019-01-22T23:19:28.687Z,80.82
2019-01-22T23:21:57.800Z,80.50
2019-01-22T23:24:45.841Z,80.02
2019-01-22T23:27:14.970Z,79.78
2019-01-22T23:29:43.794Z,80.64
2019-01-22T23:32:14.019Z,81.75
2019-01-22T23:35:00.358Z,81.58
2019-01-22T23:37:28.924Z,81.33
2019-01-22T23:39:57.592Z,81.25
2019-01-22T23:42:26.277Z,81.27
2019-01-22T23:44:55.135Z,80.45
2019-01-22T23:47:23.772Z,80.79
2019-01-22T23:49:52.400Z,80.80
2019-01-22T23:52:21.041Z,81.06
2019-01-22T23:54:49.661Z,80.95
2019-01-22T23:57:18.519Z,80.63
